sensor_id;sensor_type;location;lat;lon;timestamp;P1;durP1;ratioP1;P2;durP2;ratioP2
76063;SDS011;64762;52.006;8.424;2023-04-24T00:01:09;2.33;;;0.80;;
76063;SDS011;64762;52.006;8.424;2023-04-24T00:03:35;2.15;;;0.70;;
76063;SDS011;64762;52.006;8.424;2023-04-24T00:06:01;1.73;;;0.75;;
76063;SDS011;64762;52.006;8.424;2023-04-24T00:08:27;2.50;;;0.70;;
76063;SDS011;64762;52.006;8.424;2023-04-24T00:10:52;2.57;;;0.70;;
76063;SDS011;64762;52.006;8.424;2023-04-24T00:13:18;1.60;;;0.70;;
76063;SDS011;64762;52.006;8.424;2023-04-24T00:15:43;5.77;;;0.83;;
76063;SDS011;64762;52.006;8.424;2023-04-24T00:18:08;2.40;;;0.80;;
76063;SDS011;64762;52.006;8.424;2023-04-24T00:20:34;1.67;;;0.60;;
76063;SDS011;64762;52.006;8.424;2023-04-24T00:23:00;2.03;;;0.88;;
76063;SDS011;64762;52.006;8.424;2023-04-24T00:25:25;1.80;;;0.70;;
76063;SDS011;64762;52.006;8.424;2023-04-24T00:27:51;2.30;;;0.70;;
76063;SDS011;64762;52.006;8.424;2023-04-24T00:30:16;1.80;;;0.77;;
76063;SDS011;64762;52.006;8.424;2023-04-24T00:32:41;2.30;;;0.80;;
76063;SDS011;64762;52.006;8.424;2023-04-24T00:35:07;1.60;;;1.00;;
76063;SDS011;64762;52.006;8.424;2023-04-24T00:37:33;1.65;;;0.73;;
76063;SDS011;64762;52.006;8.424;2023-04-24T00:39:58;1.77;;;0.80;;
76063;SDS011;64762;52.006;8.424;2023-04-24T00:42:24;3.23;;;0.97;;
76063;SDS011;64762;52.006;8.424;2023-04-24T00:44:49;3.57;;;1.23;;
76063;SDS011;64762;52.006;8.424;2023-04-24T00:47:14;2.60;;;1.00;;
76063;SDS011;64762;52.006;8.424;2023-04-24T00:49:40;1.60;;;0.80;;
76063;SDS011;64762;52.006;8.424;2023-04-24T00:52:05;2.20;;;0.90;;
76063;SDS011;64762;52.006;8.424;2023-04-24T00:54:34;2.05;;;0.80;;
76063;SDS011;64762;52.006;8.424;2023-04-24T00:57:00;5.38;;;1.08;;
76063;SDS011;64762;52.006;8.424;2023-04-24T00:59:26;3.25;;;1.10;;
76063;SDS011;64762;52.006;8.424;2023-04-24T01:01:51;2.25;;;0.90;;
76063;SDS011;64762;52.006;8.424;2023-04-24T01:04:17;3.30;;;1.00;;
76063;SDS011;64762;52.006;8.424;2023-04-24T01:06:43;5.82;;;0.90;;
76063;SDS011;64762;52.006;8.424;2023-04-24T01:09:09;5.28;;;1.08;;
76063;SDS011;64762;52.006;8.424;2023-04-24T01:11:36;3.03;;;0.85;;
76063;SDS011;64762;52.006;8.424;2023-04-24T01:14:02;3.13;;;0.90;;
76063;SDS011;64762;52.006;8.424;2023-04-24T01:16:27;2.60;;;0.90;;
76063;SDS011;64762;52.006;8.424;2023-04-24T01:18:52;4.38;;;1.20;;
76063;SDS011;64762;52.006;8.424;2023-04-24T01:21:18;1.80;;;0.90;;
76063;SDS011;64762;52.006;8.424;2023-04-24T01:23:46;2.78;;;1.00;;
76063;SDS011;64762;52.006;8.424;2023-04-24T01:26:11;3.07;;;1.10;;
76063;SDS011;64762;52.006;8.424;2023-04-24T01:28:38;2.85;;;1.10;;
76063;SDS011;64762;52.006;8.424;2023-04-24T01:34:25;3.70;;;1.17;;
76063;SDS011;64762;52.006;8.424;2023-04-24T01:36:51;3.00;;;1.33;;
76063;SDS011;64762;52.006;8.424;2023-04-24T01:39:16;3.53;;;1.23;;
76063;SDS011;64762;52.006;8.424;2023-04-24T01:41:41;3.53;;;1.20;;
76063;SDS011;64762;52.006;8.424;2023-04-24T01:44:07;2.50;;;1.30;;
76063;SDS011;64762;52.006;8.424;2023-04-24T01:46:32;2.75;;;1.02;;
76063;SDS011;64762;52.006;8.424;2023-04-24T01:48:59;2.72;;;1.45;;
76063;SDS011;64762;52.006;8.424;2023-04-24T01:51:25;3.67;;;1.20;;
76063;SDS011;64762;52.006;8.424;2023-04-24T01:53:50;4.07;;;1.27;;
76063;SDS011;64762;52.006;8.424;2023-04-24T01:56:16;3.53;;;1.47;;
76063;SDS011;64762;52.006;8.424;2023-04-24T01:58:41;2.90;;;1.40;;
76063;SDS011;64762;52.006;8.424;2023-04-24T02:01:08;2.95;;;1.20;;
76063;SDS011;64762;52.006;8.424;2023-04-24T02:03:33;3.53;;;1.57;;
76063;SDS011;64762;52.006;8.424;2023-04-24T02:05:58;6.77;;;1.70;;
76063;SDS011;64762;52.006;8.424;2023-04-24T02:08:23;5.30;;;1.60;;
76063;SDS011;64762;52.006;8.424;2023-04-24T02:10:49;2.93;;;1.20;;
76063;SDS011;64762;52.006;8.424;2023-04-24T02:13:14;3.30;;;1.30;;
76063;SDS011;64762;52.006;8.424;2023-04-24T02:15:39;6.00;;;1.60;;
76063;SDS011;64762;52.006;8.424;2023-04-24T02:18:05;3.43;;;1.37;;
76063;SDS011;64762;52.006;8.424;2023-04-24T02:20:31;4.65;;;1.50;;
76063;SDS011;64762;52.006;8.424;2023-04-24T02:22:58;5.20;;;1.77;;
76063;SDS011;64762;52.006;8.424;2023-04-24T02:25:24;3.47;;;1.50;;
76063;SDS011;64762;52.006;8.424;2023-04-24T02:27:49;2.77;;;1.43;;
76063;SDS011;64762;52.006;8.424;2023-04-24T02:30:15;3.43;;;1.67;;
76063;SDS011;64762;52.006;8.424;2023-04-24T02:32:40;3.50;;;1.67;;
76063;SDS011;64762;52.006;8.424;2023-04-24T02:35:05;3.43;;;1.63;;
76063;SDS011;64762;52.006;8.424;2023-04-24T02:37:31;2.80;;;1.52;;
76063;SDS011;64762;52.006;8.424;2023-04-24T02:39:56;4.37;;;2.00;;
76063;SDS011;64762;52.006;8.424;2023-04-24T02:42:21;4.60;;;1.73;;
76063;SDS011;64762;52.006;8.424;2023-04-24T02:44:47;3.97;;;1.80;;
76063;SDS011;64762;52.006;8.424;2023-04-24T02:47:12;3.80;;;1.40;;
76063;SDS011;64762;52.006;8.424;2023-04-24T02:49:37;3.50;;;1.73;;
76063;SDS011;64762;52.006;8.424;2023-04-24T02:52:03;3.60;;;1.50;;
76063;SDS011;64762;52.006;8.424;2023-04-24T02:54:28;3.10;;;1.50;;
76063;SDS011;64762;52.006;8.424;2023-04-24T02:56:53;3.93;;;1.63;;
76063;SDS011;64762;52.006;8.424;2023-04-24T02:59:19;4.43;;;1.52;;
76063;SDS011;64762;52.006;8.424;2023-04-24T03:01:44;3.67;;;1.40;;
76063;SDS011;64762;52.006;8.424;2023-04-24T03:04:09;2.97;;;1.40;;
76063;SDS011;64762;52.006;8.424;2023-04-24T03:06:35;4.38;;;1.80;;
76063;SDS011;64762;52.006;8.424;2023-04-24T03:09:01;6.30;;;1.40;;
76063;SDS011;64762;52.006;8.424;2023-04-24T03:11:26;5.27;;;1.63;;
76063;SDS011;64762;52.006;8.424;2023-04-24T03:13:51;4.28;;;1.38;;
76063;SDS011;64762;52.006;8.424;2023-04-24T03:16:17;4.80;;;1.50;;
76063;SDS011;64762;52.006;8.424;2023-04-24T03:18:42;3.13;;;1.57;;
76063;SDS011;64762;52.006;8.424;2023-04-24T03:21:07;6.07;;;1.53;;
76063;SDS011;64762;52.006;8.424;2023-04-24T03:23:32;3.40;;;1.70;;
76063;SDS011;64762;52.006;8.424;2023-04-24T03:25:58;3.20;;;1.30;;
76063;SDS011;64762;52.006;8.424;2023-04-24T03:28:23;3.70;;;1.60;;
76063;SDS011;64762;52.006;8.424;2023-04-24T03:30:50;2.92;;;1.30;;
76063;SDS011;64762;52.006;8.424;2023-04-24T03:33:15;4.00;;;1.37;;
76063;SDS011;64762;52.006;8.424;2023-04-24T03:35:40;5.00;;;1.43;;
76063;SDS011;64762;52.006;8.424;2023-04-24T03:38:06;5.18;;;1.63;;
76063;SDS011;64762;52.006;8.424;2023-04-24T03:40:31;4.87;;;1.60;;
76063;SDS011;64762;52.006;8.424;2023-04-24T03:42:58;3.78;;;2.05;;
76063;SDS011;64762;52.006;8.424;2023-04-24T03:45:23;5.60;;;1.70;;
76063;SDS011;64762;52.006;8.424;2023-04-24T03:47:49;4.40;;;1.83;;
76063;SDS011;64762;52.006;8.424;2023-04-24T03:50:15;3.33;;;1.70;;
76063;SDS011;64762;52.006;8.424;2023-04-24T03:52:40;5.28;;;1.70;;
76063;SDS011;64762;52.006;8.424;2023-04-24T03:55:05;4.13;;;1.83;;
76063;SDS011;64762;52.006;8.424;2023-04-24T03:57:31;4.80;;;1.92;;
76063;SDS011;64762;52.006;8.424;2023-04-24T03:59:57;4.30;;;1.97;;
76063;SDS011;64762;52.006;8.424;2023-04-24T04:02:22;4.30;;;1.93;;
76063;SDS011;64762;52.006;8.424;2023-04-24T04:04:47;3.70;;;2.00;;
76063;SDS011;64762;52.006;8.424;2023-04-24T04:07:12;7.10;;;2.00;;
76063;SDS011;64762;52.006;8.424;2023-04-24T04:09:38;5.22;;;2.20;;
76063;SDS011;64762;52.006;8.424;2023-04-24T04:12:03;3.90;;;1.83;;
76063;SDS011;64762;52.006;8.424;2023-04-24T04:14:29;4.35;;;1.92;;
76063;SDS011;64762;52.006;8.424;2023-04-24T04:16:54;4.50;;;2.00;;
76063;SDS011;64762;52.006;8.424;2023-04-24T04:19:20;4.72;;;1.95;;
76063;SDS011;64762;52.006;8.424;2023-04-24T04:21:45;4.43;;;2.10;;
76063;SDS011;64762;52.006;8.424;2023-04-24T04:24:11;4.43;;;2.10;;
76063;SDS011;64762;52.006;8.424;2023-04-24T04:26:36;4.93;;;2.42;;
76063;SDS011;64762;52.006;8.424;2023-04-24T04:29:02;4.70;;;2.30;;
76063;SDS011;64762;52.006;8.424;2023-04-24T04:31:28;4.78;;;2.20;;
76063;SDS011;64762;52.006;8.424;2023-04-24T04:33:54;5.40;;;2.47;;
76063;SDS011;64762;52.006;8.424;2023-04-24T04:36:19;6.30;;;3.38;;
76063;SDS011;64762;52.006;8.424;2023-04-24T04:38:45;5.22;;;2.35;;
76063;SDS011;64762;52.006;8.424;2023-04-24T04:41:10;4.37;;;2.60;;
76063;SDS011;64762;52.006;8.424;2023-04-24T04:43:36;6.70;;;3.50;;
76063;SDS011;64762;52.006;8.424;2023-04-24T04:46:01;7.03;;;3.38;;
76063;SDS011;64762;52.006;8.424;2023-04-24T04:48:28;10.25;;;4.28;;
76063;SDS011;64762;52.006;8.424;2023-04-24T04:50:53;10.45;;;4.90;;
76063;SDS011;64762;52.006;8.424;2023-04-24T04:53:19;11.83;;;5.60;;
76063;SDS011;64762;52.006;8.424;2023-04-24T04:55:44;14.67;;;5.03;;
76063;SDS011;64762;52.006;8.424;2023-04-24T04:58:09;11.07;;;5.40;;
76063;SDS011;64762;52.006;8.424;2023-04-24T05:00:35;16.87;;;7.40;;
76063;SDS011;64762;52.006;8.424;2023-04-24T05:03:02;13.95;;;7.10;;
76063;SDS011;64762;52.006;8.424;2023-04-24T05:05:28;13.48;;;7.28;;
76063;SDS011;64762;52.006;8.424;2023-04-24T05:07:53;18.92;;;7.07;;
76063;SDS011;64762;52.006;8.424;2023-04-24T05:10:20;16.63;;;6.97;;
76063;SDS011;64762;52.006;8.424;2023-04-24T05:12:45;14.27;;;7.70;;
76063;SDS011;64762;52.006;8.424;2023-04-24T05:15:10;15.77;;;7.43;;
76063;SDS011;64762;52.006;8.424;2023-04-24T05:17:36;18.73;;;8.00;;
76063;SDS011;64762;52.006;8.424;2023-04-24T05:20:02;18.77;;;7.47;;
76063;SDS011;64762;52.006;8.424;2023-04-24T05:22:30;16.70;;;8.05;;
76063;SDS011;64762;52.006;8.424;2023-04-24T05:24:55;18.88;;;8.27;;
76063;SDS011;64762;52.006;8.424;2023-04-24T05:27:21;16.37;;;7.30;;
76063;SDS011;64762;52.006;8.424;2023-04-24T05:29:46;16.87;;;7.87;;
76063;SDS011;64762;52.006;8.424;2023-04-24T05:32:11;19.67;;;7.97;;
76063;SDS011;64762;52.006;8.424;2023-04-24T05:34:37;33.70;;;8.27;;
76063;SDS011;64762;52.006;8.424;2023-04-24T05:37:02;17.53;;;7.97;;
76063;SDS011;64762;52.006;8.424;2023-04-24T05:39:28;17.23;;;7.95;;
76063;SDS011;64762;52.006;8.424;2023-04-24T05:41:54;17.27;;;8.63;;
76063;SDS011;64762;52.006;8.424;2023-04-24T05:44:22;17.20;;;8.45;;
76063;SDS011;64762;52.006;8.424;2023-04-24T05:46:48;15.43;;;7.20;;
76063;SDS011;64762;52.006;8.424;2023-04-24T05:49:13;18.13;;;7.90;;
76063;SDS011;64762;52.006;8.424;2023-04-24T05:51:38;18.40;;;8.90;;
76063;SDS011;64762;52.006;8.424;2023-04-24T05:54:04;19.77;;;9.02;;
76063;SDS011;64762;52.006;8.424;2023-04-24T05:56:30;20.37;;;9.07;;
76063;SDS011;64762;52.006;8.424;2023-04-24T05:58:55;17.08;;;9.13;;
76063;SDS011;64762;52.006;8.424;2023-04-24T06:01:21;19.17;;;9.00;;
76063;SDS011;64762;52.006;8.424;2023-04-24T06:03:46;19.40;;;8.87;;
76063;SDS011;64762;52.006;8.424;2023-04-24T06:06:11;20.50;;;8.47;;
76063;SDS011;64762;52.006;8.424;2023-04-24T06:08:37;17.98;;;8.82;;
76063;SDS011;64762;52.006;8.424;2023-04-24T06:11:02;22.38;;;9.73;;
76063;SDS011;64762;52.006;8.424;2023-04-24T06:13:27;23.40;;;9.77;;
76063;SDS011;64762;52.006;8.424;2023-04-24T06:15:53;22.93;;;9.17;;
76063;SDS011;64762;52.006;8.424;2023-04-24T06:18:18;20.37;;;9.73;;
76063;SDS011;64762;52.006;8.424;2023-04-24T06:20:44;25.33;;;10.02;;
76063;SDS011;64762;52.006;8.424;2023-04-24T06:23:10;19.30;;;9.23;;
76063;SDS011;64762;52.006;8.424;2023-04-24T06:25:35;21.20;;;10.67;;
76063;SDS011;64762;52.006;8.424;2023-04-24T06:28:01;19.30;;;8.87;;
76063;SDS011;64762;52.006;8.424;2023-04-24T06:30:27;20.20;;;9.18;;
76063;SDS011;64762;52.006;8.424;2023-04-24T06:32:53;19.90;;;9.25;;
76063;SDS011;64762;52.006;8.424;2023-04-24T06:35:18;25.07;;;9.70;;
76063;SDS011;64762;52.006;8.424;2023-04-24T06:37:43;22.07;;;9.30;;
76063;SDS011;64762;52.006;8.424;2023-04-24T06:40:09;19.97;;;9.47;;
76063;SDS011;64762;52.006;8.424;2023-04-24T06:42:35;19.63;;;9.55;;
76063;SDS011;64762;52.006;8.424;2023-04-24T06:45:00;21.90;;;10.63;;
76063;SDS011;64762;52.006;8.424;2023-04-24T06:47:26;21.65;;;9.13;;
76063;SDS011;64762;52.006;8.424;2023-04-24T06:49:51;20.27;;;9.13;;
76063;SDS011;64762;52.006;8.424;2023-04-24T06:52:17;21.65;;;10.10;;
76063;SDS011;64762;52.006;8.424;2023-04-24T06:54:43;25.10;;;10.18;;
76063;SDS011;64762;52.006;8.424;2023-04-24T06:57:08;20.60;;;9.67;;
76063;SDS011;64762;52.006;8.424;2023-04-24T06:59:34;24.20;;;10.57;;
76063;SDS011;64762;52.006;8.424;2023-04-24T07:01:59;20.10;;;9.50;;
76063;SDS011;64762;52.006;8.424;2023-04-24T07:04:25;20.30;;;10.00;;
76063;SDS011;64762;52.006;8.424;2023-04-24T07:06:50;22.53;;;9.73;;
76063;SDS011;64762;52.006;8.424;2023-04-24T07:09:16;24.10;;;11.23;;
76063;SDS011;64762;52.006;8.424;2023-04-24T07:11:43;22.40;;;10.20;;
76063;SDS011;64762;52.006;8.424;2023-04-24T07:14:09;21.23;;;11.30;;
76063;SDS011;64762;52.006;8.424;2023-04-24T07:16:34;18.60;;;8.67;;
76063;SDS011;64762;52.006;8.424;2023-04-24T07:19:00;19.90;;;9.30;;
76063;SDS011;64762;52.006;8.424;2023-04-24T07:21:25;17.17;;;9.33;;
76063;SDS011;64762;52.006;8.424;2023-04-24T07:23:50;18.87;;;9.00;;
76063;SDS011;64762;52.006;8.424;2023-04-24T07:26:16;20.63;;;9.03;;
76063;SDS011;64762;52.006;8.424;2023-04-24T07:28:41;16.23;;;8.13;;
76063;SDS011;64762;52.006;8.424;2023-04-24T07:31:07;17.43;;;8.20;;
76063;SDS011;64762;52.006;8.424;2023-04-24T07:33:33;16.38;;;7.95;;
76063;SDS011;64762;52.006;8.424;2023-04-24T07:35:59;14.70;;;8.02;;
76063;SDS011;64762;52.006;8.424;2023-04-24T07:38:24;17.38;;;7.68;;
76063;SDS011;64762;52.006;8.424;2023-04-24T07:40:50;17.83;;;7.32;;
76063;SDS011;64762;52.006;8.424;2023-04-24T07:43:16;12.65;;;7.43;;
76063;SDS011;64762;52.006;8.424;2023-04-24T07:45:41;15.97;;;6.63;;
76063;SDS011;64762;52.006;8.424;2023-04-24T07:48:06;12.77;;;6.57;;
76063;SDS011;64762;52.006;8.424;2023-04-24T07:50:33;12.02;;;6.03;;
76063;SDS011;64762;52.006;8.424;2023-04-24T07:52:59;11.27;;;5.13;;
76063;SDS011;64762;52.006;8.424;2023-04-24T07:55:25;10.33;;;5.47;;
76063;SDS011;64762;52.006;8.424;2023-04-24T07:57:50;10.63;;;5.37;;
76063;SDS011;64762;52.006;8.424;2023-04-24T08:00:16;11.32;;;5.75;;
76063;SDS011;64762;52.006;8.424;2023-04-24T08:02:41;11.85;;;6.22;;
76063;SDS011;64762;52.006;8.424;2023-04-24T08:05:06;11.87;;;5.20;;
76063;SDS011;64762;52.006;8.424;2023-04-24T08:07:32;12.57;;;5.28;;
76063;SDS011;64762;52.006;8.424;2023-04-24T08:09:58;12.32;;;5.72;;
76063;SDS011;64762;52.006;8.424;2023-04-24T08:12:24;16.45;;;5.80;;
76063;SDS011;64762;52.006;8.424;2023-04-24T08:14:49;9.85;;;4.70;;
76063;SDS011;64762;52.006;8.424;2023-04-24T08:17:16;11.50;;;4.97;;
76063;SDS011;64762;52.006;8.424;2023-04-24T08:19:41;10.05;;;5.00;;
76063;SDS011;64762;52.006;8.424;2023-04-24T08:22:13;10.02;;;4.65;;
76063;SDS011;64762;52.006;8.424;2023-04-24T08:24:39;9.65;;;5.13;;
76063;SDS011;64762;52.006;8.424;2023-04-24T08:27:04;9.10;;;5.07;;
76063;SDS011;64762;52.006;8.424;2023-04-24T08:29:30;10.00;;;5.50;;
76063;SDS011;64762;52.006;8.424;2023-04-24T08:31:55;8.73;;;5.03;;
76063;SDS011;64762;52.006;8.424;2023-04-24T08:34:21;7.17;;;4.13;;
76063;SDS011;64762;52.006;8.424;2023-04-24T08:36:46;8.35;;;4.82;;
76063;SDS011;64762;52.006;8.424;2023-04-24T08:39:12;7.78;;;4.28;;
76063;SDS011;64762;52.006;8.424;2023-04-24T08:41:37;8.20;;;4.87;;
76063;SDS011;64762;52.006;8.424;2023-04-24T08:44:03;9.70;;;4.63;;
76063;SDS011;64762;52.006;8.424;2023-04-24T08:46:29;5.97;;;3.25;;
76063;SDS011;64762;52.006;8.424;2023-04-24T08:48:55;7.07;;;4.07;;
76063;SDS011;64762;52.006;8.424;2023-04-24T08:51:21;6.63;;;3.80;;
76063;SDS011;64762;52.006;8.424;2023-04-24T08:53:46;8.15;;;3.67;;
76063;SDS011;64762;52.006;8.424;2023-04-24T08:56:12;6.40;;;3.80;;
76063;SDS011;64762;52.006;8.424;2023-04-24T08:58:38;6.85;;;3.85;;
76063;SDS011;64762;52.006;8.424;2023-04-24T09:01:04;5.32;;;3.05;;
76063;SDS011;64762;52.006;8.424;2023-04-24T09:03:30;9.07;;;3.72;;
76063;SDS011;64762;52.006;8.424;2023-04-24T09:05:56;7.13;;;2.90;;
76063;SDS011;64762;52.006;8.424;2023-04-24T09:08:23;5.45;;;3.03;;
76063;SDS011;64762;52.006;8.424;2023-04-24T09:10:50;8.57;;;3.90;;
76063;SDS011;64762;52.006;8.424;2023-04-24T09:13:15;6.50;;;3.03;;
76063;SDS011;64762;52.006;8.424;2023-04-24T09:15:41;4.73;;;2.43;;
76063;SDS011;64762;52.006;8.424;2023-04-24T09:18:06;6.25;;;2.75;;
76063;SDS011;64762;52.006;8.424;2023-04-24T09:20:31;6.07;;;2.50;;
76063;SDS011;64762;52.006;8.424;2023-04-24T09:22:57;4.30;;;2.50;;
76063;SDS011;64762;52.006;8.424;2023-04-24T09:25:25;4.07;;;2.05;;
76063;SDS011;64762;52.006;8.424;2023-04-24T09:27:59;5.30;;;2.90;;
76063;SDS011;64762;52.006;8.424;2023-04-24T09:30:26;4.50;;;2.70;;
76063;SDS011;64762;52.006;8.424;2023-04-24T09:33:09;5.82;;;2.83;;
76063;SDS011;64762;52.006;8.424;2023-04-24T09:35:40;5.47;;;2.60;;
76063;SDS011;64762;52.006;8.424;2023-04-24T09:38:06;7.07;;;2.47;;
76063;SDS011;64762;52.006;8.424;2023-04-24T09:40:32;6.77;;;2.93;;
76063;SDS011;64762;52.006;8.424;2023-04-24T09:42:59;5.72;;;2.25;;
76063;SDS011;64762;52.006;8.424;2023-04-24T09:45:28;3.55;;;1.80;;
76063;SDS011;64762;52.006;8.424;2023-04-24T09:47:54;4.43;;;2.30;;
76063;SDS011;64762;52.006;8.424;2023-04-24T09:50:20;4.45;;;2.30;;
76063;SDS011;64762;52.006;8.424;2023-04-24T09:52:47;7.47;;;2.42;;
76063;SDS011;64762;52.006;8.424;2023-04-24T09:55:22;3.97;;;2.17;;
76063;SDS011;64762;52.006;8.424;2023-04-24T09:57:57;5.13;;;2.17;;
76063;SDS011;64762;52.006;8.424;2023-04-24T10:00:26;5.38;;;2.60;;
76063;SDS011;64762;52.006;8.424;2023-04-24T10:02:55;4.15;;;2.53;;
76063;SDS011;64762;52.006;8.424;2023-04-24T10:05:32;3.78;;;2.15;;
76063;SDS011;64762;52.006;8.424;2023-04-24T10:08:08;6.38;;;1.92;;
76063;SDS011;64762;52.006;8.424;2023-04-24T10:10:37;4.10;;;1.85;;
76063;SDS011;64762;52.006;8.424;2023-04-24T10:13:03;4.53;;;1.90;;
76063;SDS011;64762;52.006;8.424;2023-04-24T10:15:29;4.97;;;1.73;;
76063;SDS011;64762;52.006;8.424;2023-04-24T10:17:55;4.55;;;1.83;;
76063;SDS011;64762;52.006;8.424;2023-04-24T10:20:23;6.35;;;2.35;;
76063;SDS011;64762;52.006;8.424;2023-04-24T10:22:53;6.45;;;2.20;;
76063;SDS011;64762;52.006;8.424;2023-04-24T10:25:19;3.80;;;1.73;;
76063;SDS011;64762;52.006;8.424;2023-04-24T10:27:46;5.15;;;2.33;;
76063;SDS011;64762;52.006;8.424;2023-04-24T10:30:12;7.78;;;2.55;;
76063;SDS011;64762;52.006;8.424;2023-04-24T10:32:38;5.70;;;2.67;;
76063;SDS011;64762;52.006;8.424;2023-04-24T10:35:05;4.53;;;2.50;;
76063;SDS011;64762;52.006;8.424;2023-04-24T10:37:35;5.00;;;2.20;;
76063;SDS011;64762;52.006;8.424;2023-04-24T10:40:06;6.05;;;2.47;;
76063;SDS011;64762;52.006;8.424;2023-04-24T10:42:32;5.95;;;3.08;;
76063;SDS011;64762;52.006;8.424;2023-04-24T10:44:58;5.22;;;3.38;;
76063;SDS011;64762;52.006;8.424;2023-04-24T10:47:23;6.15;;;3.58;;
76063;SDS011;64762;52.006;8.424;2023-04-24T10:49:50;6.43;;;4.05;;
76063;SDS011;64762;52.006;8.424;2023-04-24T10:52:16;6.90;;;3.97;;
76063;SDS011;64762;52.006;8.424;2023-04-24T10:54:45;5.32;;;3.38;;
76063;SDS011;64762;52.006;8.424;2023-04-24T10:59:48;7.93;;;4.38;;
76063;SDS011;64762;52.006;8.424;2023-04-24T11:02:15;11.18;;;4.43;;
76063;SDS011;64762;52.006;8.424;2023-04-24T11:04:41;6.43;;;3.85;;
76063;SDS011;64762;52.006;8.424;2023-04-24T11:07:11;8.00;;;4.88;;
76063;SDS011;64762;52.006;8.424;2023-04-24T11:09:36;8.45;;;4.55;;
76063;SDS011;64762;52.006;8.424;2023-04-24T11:12:03;8.45;;;4.75;;
76063;SDS011;64762;52.006;8.424;2023-04-24T11:14:35;9.77;;;4.97;;
76063;SDS011;64762;52.006;8.424;2023-04-24T11:17:30;8.60;;;4.22;;
76063;SDS011;64762;52.006;8.424;2023-04-24T11:20:05;8.30;;;3.92;;
76063;SDS011;64762;52.006;8.424;2023-04-24T11:22:35;5.45;;;3.17;;
76063;SDS011;64762;52.006;8.424;2023-04-24T11:25:02;4.78;;;2.25;;
76063;SDS011;64762;52.006;8.424;2023-04-24T11:27:30;5.53;;;2.80;;
76063;SDS011;64762;52.006;8.424;2023-04-24T11:35:16;5.38;;;2.67;;
76063;SDS011;64762;52.006;8.424;2023-04-24T11:37:49;3.72;;;1.90;;
76063;SDS011;64762;52.006;8.424;2023-04-24T11:42:42;4.07;;;1.88;;
76063;SDS011;64762;52.006;8.424;2023-04-24T11:45:09;3.90;;;1.95;;
76063;SDS011;64762;52.006;8.424;2023-04-24T11:47:36;3.55;;;2.08;;
76063;SDS011;64762;52.006;8.424;2023-04-24T11:50:03;4.55;;;2.20;;
76063;SDS011;64762;52.006;8.424;2023-04-24T11:52:29;6.93;;;2.72;;
76063;SDS011;64762;52.006;8.424;2023-04-24T11:54:55;9.65;;;2.45;;
76063;SDS011;64762;52.006;8.424;2023-04-24T11:57:21;6.15;;;3.20;;
76063;SDS011;64762;52.006;8.424;2023-04-24T11:59:48;7.13;;;3.40;;
76063;SDS011;64762;52.006;8.424;2023-04-24T12:02:24;8.23;;;3.28;;
76063;SDS011;64762;52.006;8.424;2023-04-24T12:04:51;7.43;;;4.18;;
76063;SDS011;64762;52.006;8.424;2023-04-24T12:07:17;8.02;;;3.33;;
76063;SDS011;64762;52.006;8.424;2023-04-24T12:09:43;7.28;;;3.70;;
76063;SDS011;64762;52.006;8.424;2023-04-24T12:12:10;6.68;;;3.40;;
76063;SDS011;64762;52.006;8.424;2023-04-24T12:14:43;6.53;;;2.83;;
76063;SDS011;64762;52.006;8.424;2023-04-24T12:17:23;6.05;;;3.10;;
76063;SDS011;64762;52.006;8.424;2023-04-24T12:19:50;9.45;;;3.33;;
76063;SDS011;64762;52.006;8.424;2023-04-24T12:22:15;7.22;;;3.22;;
76063;SDS011;64762;52.006;8.424;2023-04-24T12:24:57;5.78;;;2.92;;
76063;SDS011;64762;52.006;8.424;2023-04-24T12:27:23;9.43;;;3.70;;
76063;SDS011;64762;52.006;8.424;2023-04-24T12:29:52;9.77;;;3.63;;
76063;SDS011;64762;52.006;8.424;2023-04-24T12:32:21;7.90;;;3.10;;
76063;SDS011;64762;52.006;8.424;2023-04-24T12:34:46;13.90;;;3.73;;
76063;SDS011;64762;52.006;8.424;2023-04-24T12:37:11;6.80;;;3.00;;
76063;SDS011;64762;52.006;8.424;2023-04-24T12:39:37;7.82;;;4.07;;
76063;SDS011;64762;52.006;8.424;2023-04-24T12:42:03;10.13;;;4.50;;
76063;SDS011;64762;52.006;8.424;2023-04-24T12:44:31;10.87;;;4.37;;
76063;SDS011;64762;52.006;8.424;2023-04-24T12:46:59;10.48;;;4.60;;
76063;SDS011;64762;52.006;8.424;2023-04-24T12:49:28;10.43;;;4.43;;
76063;SDS011;64762;52.006;8.424;2023-04-24T12:51:55;12.57;;;4.78;;
76063;SDS011;64762;52.006;8.424;2023-04-24T12:54:20;8.50;;;3.83;;
76063;SDS011;64762;52.006;8.424;2023-04-24T12:56:45;9.17;;;3.90;;
76063;SDS011;64762;52.006;8.424;2023-04-24T12:59:11;14.23;;;4.30;;
76063;SDS011;64762;52.006;8.424;2023-04-24T13:01:36;12.40;;;4.90;;
76063;SDS011;64762;52.006;8.424;2023-04-24T13:04:01;11.23;;;4.25;;
76063;SDS011;64762;52.006;8.424;2023-04-24T13:06:27;9.60;;;4.20;;
76063;SDS011;64762;52.006;8.424;2023-04-24T13:08:52;11.10;;;4.47;;
76063;SDS011;64762;52.006;8.424;2023-04-24T13:11:19;10.65;;;4.50;;
76063;SDS011;64762;52.006;8.424;2023-04-24T13:13:46;17.27;;;5.10;;
76063;SDS011;64762;52.006;8.424;2023-04-24T13:16:11;8.70;;;3.60;;
76063;SDS011;64762;52.006;8.424;2023-04-24T13:18:37;10.33;;;4.53;;
76063;SDS011;64762;52.006;8.424;2023-04-24T13:21:02;7.90;;;3.57;;
76063;SDS011;64762;52.006;8.424;2023-04-24T13:23:27;12.35;;;4.18;;
76063;SDS011;64762;52.006;8.424;2023-04-24T13:25:54;13.25;;;4.43;;
76063;SDS011;64762;52.006;8.424;2023-04-24T13:28:22;8.55;;;4.60;;
76063;SDS011;64762;52.006;8.424;2023-04-24T13:30:47;12.23;;;4.50;;
76063;SDS011;64762;52.006;8.424;2023-04-24T13:33:13;9.50;;;4.78;;
76063;SDS011;64762;52.006;8.424;2023-04-24T13:35:38;7.53;;;3.77;;
76063;SDS011;64762;52.006;8.424;2023-04-24T13:38:04;10.63;;;4.57;;
76063;SDS011;64762;52.006;8.424;2023-04-24T13:40:31;15.20;;;5.00;;
76063;SDS011;64762;52.006;8.424;2023-04-24T13:42:56;14.43;;;5.07;;
76063;SDS011;64762;52.006;8.424;2023-04-24T13:45:22;14.57;;;5.30;;
76063;SDS011;64762;52.006;8.424;2023-04-24T13:47:47;15.50;;;5.20;;
76063;SDS011;64762;52.006;8.424;2023-04-24T13:50:12;12.20;;;5.53;;
76063;SDS011;64762;52.006;8.424;2023-04-24T13:52:38;11.57;;;5.17;;
76063;SDS011;64762;52.006;8.424;2023-04-24T13:55:03;14.40;;;5.45;;
76063;SDS011;64762;52.006;8.424;2023-04-24T13:57:29;12.23;;;5.45;;
76063;SDS011;64762;52.006;8.424;2023-04-24T13:59:55;11.77;;;5.20;;
76063;SDS011;64762;52.006;8.424;2023-04-24T14:02:25;13.43;;;4.70;;
76063;SDS011;64762;52.006;8.424;2023-04-24T14:04:51;15.20;;;5.50;;
76063;SDS011;64762;52.006;8.424;2023-04-24T14:07:16;13.70;;;5.35;;
76063;SDS011;64762;52.006;8.424;2023-04-24T14:09:42;14.67;;;5.93;;
76063;SDS011;64762;52.006;8.424;2023-04-24T14:12:07;9.43;;;3.93;;
76063;SDS011;64762;52.006;8.424;2023-04-24T14:14:32;11.93;;;4.43;;
76063;SDS011;64762;52.006;8.424;2023-04-24T14:16:58;15.37;;;5.40;;
76063;SDS011;64762;52.006;8.424;2023-04-24T14:19:23;11.07;;;4.57;;
76063;SDS011;64762;52.006;8.424;2023-04-24T14:21:48;16.40;;;6.67;;
76063;SDS011;64762;52.006;8.424;2023-04-24T14:24:14;11.35;;;3.88;;
76063;SDS011;64762;52.006;8.424;2023-04-24T14:26:39;12.43;;;5.00;;
76063;SDS011;64762;52.006;8.424;2023-04-24T14:29:05;13.23;;;5.33;;
76063;SDS011;64762;52.006;8.424;2023-04-24T14:31:31;13.38;;;5.13;;
76063;SDS011;64762;52.006;8.424;2023-04-24T14:33:56;13.80;;;4.63;;
76063;SDS011;64762;52.006;8.424;2023-04-24T14:36:22;13.40;;;3.95;;
76063;SDS011;64762;52.006;8.424;2023-04-24T14:38:47;17.90;;;5.50;;
76063;SDS011;64762;52.006;8.424;2023-04-24T14:41:13;17.43;;;5.57;;
76063;SDS011;64762;52.006;8.424;2023-04-24T14:43:38;13.40;;;4.90;;
76063;SDS011;64762;52.006;8.424;2023-04-24T14:46:04;17.17;;;5.23;;
76063;SDS011;64762;52.006;8.424;2023-04-24T14:48:29;12.93;;;5.10;;
76063;SDS011;64762;52.006;8.424;2023-04-24T14:50:55;12.35;;;4.57;;